createdAt,value
2018-05-01T00:00:49.031Z,0
2018-05-01T00:01:50.155Z,0
2018-05-01T00:02:50.895Z,0
2018-05-01T00:03:51.626Z,0
2018-05-01T00:04:52.445Z,0
2018-05-01T00:05:53.166Z,0
2018-05-01T00:06:54.067Z,0
2018-05-01T00:07:54.882Z,0
2018-05-01T00:08:55.585Z,0
2018-05-01T00:09:56.311Z,0
2018-05-01T00:10:57.078Z,0
2018-05-01T00:11:57.907Z,0
2018-05-01T00:12:58.650Z,0
2018-05-01T00:13:59.453Z,0
2018-05-01T00:15:00.248Z,0
2018-05-01T00:16:00.974Z,0
2018-05-01T00:17:02.049Z,0
2018-05-01T00:18:02.817Z,0
2018-05-01T00:19:03.584Z,0
2018-05-01T00:20:04.304Z,0
2018-05-01T00:21:05.034Z,0
2018-05-01T00:22:05.753Z,0
2018-05-01T00:23:06.481Z,0
2018-05-01T00:24:07.213Z,0
2018-05-01T00:25:07.924Z,0
2018-05-01T00:26:08.641Z,0
2018-05-01T00:27:09.389Z,0
2018-05-01T00:28:10.170Z,0
2018-05-01T00:29:10.955Z,0
2018-05-01T00:30:11.685Z,0
2018-05-01T00:31:12.427Z,0
2018-05-01T00:32:13.222Z,0
2018-05-01T00:33:13.942Z,0
2018-05-01T00:34:14.718Z,0
2018-05-01T00:35:15.535Z,0
2018-05-01T00:36:16.258Z,0
2018-05-01T00:37:16.982Z,0
2018-05-01T00:38:17.717Z,0
2018-05-01T00:39:18.496Z,0
2018-05-01T00:40:19.285Z,0
2018-05-01T00:41:20.013Z,0
2018-05-01T00:42:20.825Z,0
2018-05-01T00:43:21.586Z,0
2018-05-01T00:44:22.381Z,0
2018-05-01T00:45:23.120Z,0
2018-05-01T00:46:23.928Z,0
2018-05-01T00:47:24.704Z,0
2018-05-01T00:48:25.450Z,0
2018-05-01T00:49:26.184Z,0
2018-05-01T00:50:26.913Z,0
2018-05-01T00:51:27.676Z,0
2018-05-01T00:52:28.380Z,0
2018-05-01T00:53:29.164Z,0
2018-05-01T00:54:29.943Z,0
2018-05-01T00:55:30.700Z,0
2018-05-01T00:56:31.842Z,0
2018-05-01T00:57:32.651Z,0
2018-05-01T00:58:33.363Z,0
2018-05-01T00:59:34.096Z,0
2018-05-01T01:00:34.825Z,0
2018-05-01T01:01:35.659Z,0
2018-05-01T01:02:36.382Z,0
2018-05-01T01:03:37.257Z,0
2018-05-01T01:04:37.983Z,0
2018-05-01T01:05:38.710Z,0
2018-05-01T01:06:39.435Z,0
2018-05-01T01:07:40.224Z,0
2018-05-01T01:08:40.971Z,0
2018-05-01T01:09:41.759Z,0
2018-05-01T01:10:42.492Z,0
2018-05-01T01:11:43.216Z,0
2018-05-01T01:12:44.010Z,0
2018-05-01T01:13:44.726Z,0
2018-05-01T01:14:45.456Z,0
2018-05-01T01:15:46.174Z,0
2018-05-01T01:16:46.913Z,0
2018-05-01T01:17:47.685Z,0
2018-05-01T01:18:48.418Z,0
2018-05-01T01:19:49.209Z,0
2018-05-01T01:20:49.940Z,0
2018-05-01T01:21:50.728Z,0
2018-05-01T01:22:51.457Z,0
2018-05-01T01:23:52.177Z,0
2018-05-01T01:24:52.904Z,0
2018-05-01T01:25:53.706Z,0
2018-05-01T01:26:54.488Z,0
2018-05-01T01:27:55.254Z,0
2018-05-01T01:28:56.000Z,0
2018-05-01T01:29:56.778Z,0
2018-05-01T01:30:57.552Z,0
2018-05-01T01:31:58.274Z,0
2018-05-01T01:32:58.993Z,0
2018-05-01T01:33:59.718Z,0
2018-05-01T01:35:00.449Z,0
2018-05-01T01:36:01.221Z,0
2018-05-01T01:37:01.993Z,0
2018-05-01T01:38:02.784Z,0
2018-05-01T01:39:03.520Z,0
2018-05-01T01:40:04.252Z,0
2018-05-01T01:41:05.089Z,0
2018-05-01T01:42:05.819Z,0
2018-05-01T01:43:06.552Z,0
2018-05-01T01:44:07.288Z,0
2018-05-01T01:45:08.064Z,0
2018-05-01T01:46:08.798Z,0
2018-05-01T01:47:09.525Z,0
2018-05-01T01:48:10.342Z,0
2018-05-01T01:49:11.063Z,0
2018-05-01T01:50:11.853Z,0
2018-05-01T01:51:12.601Z,0
2018-05-01T01:52:13.326Z,0
2018-05-01T01:53:14.102Z,0
2018-05-01T01:54:14.835Z,0
2018-05-01T01:55:15.953Z,0
2018-05-01T01:56:16.703Z,0
2018-05-01T01:57:17.436Z,0
2018-05-01T01:58:18.146Z,0
2018-05-01T01:59:18.875Z,0
2018-05-01T02:00:19.606Z,0
2018-05-01T02:01:20.320Z,0
2018-05-01T02:02:21.069Z,0
2018-05-01T02:03:21.862Z,0
2018-05-01T02:04:22.632Z,0
2018-05-01T02:05:23.348Z,0
2018-05-01T02:06:24.075Z,0
2018-05-01T02:07:24.806Z,0
2018-05-01T02:08:25.544Z,0
2018-05-01T02:09:26.431Z,0
2018-05-01T02:10:27.219Z,0
2018-05-01T02:11:27.941Z,0
2018-05-01T02:12:28.657Z,0
2018-05-01T02:13:29.436Z,0
2018-05-01T02:14:30.154Z,0
2018-05-01T02:15:30.879Z,0
2018-05-01T02:16:31.604Z,0
2018-05-01T02:17:32.460Z,0
2018-05-01T02:18:33.173Z,0
2018-05-01T02:19:33.895Z,0
2018-05-01T02:20:34.616Z,0
2018-05-01T02:21:35.347Z,0
2018-05-01T02:22:36.064Z,0
2018-05-01T02:23:36.798Z,0
2018-05-01T02:24:37.572Z,0
2018-05-01T02:25:38.309Z,0
2018-05-01T02:26:39.559Z,0
2018-05-01T02:27:40.348Z,0
2018-05-01T02:28:41.145Z,0
2018-05-01T02:29:41.950Z,0
2018-05-01T02:30:42.669Z,0
2018-05-01T02:31:43.449Z,0
2018-05-01T02:32:44.167Z,0
2018-05-01T02:33:44.897Z,0
2018-05-01T02:34:45.633Z,0
2018-05-01T02:35:46.407Z,0
2018-05-01T02:36:47.112Z,0
2018-05-01T02:37:47.848Z,0
2018-05-01T02:38:48.667Z,0
2018-05-01T02:39:49.473Z,0
2018-05-01T02:40:50.196Z,0
2018-05-01T02:41:50.927Z,0
2018-05-01T02:42:51.706Z,0
2018-05-01T02:43:52.535Z,0
2018-05-01T02:44:53.252Z,0
2018-05-01T02:45:53.992Z,0
2018-05-01T02:46:54.719Z,0
2018-05-01T02:47:55.453Z,0
2018-05-01T02:48:56.180Z,0
2018-05-01T02:49:57.115Z,0
2018-05-01T02:50:57.905Z,0
2018-05-01T02:51:58.625Z,0
2018-05-01T02:52:59.356Z,0
2018-05-01T02:54:00.078Z,0
2018-05-01T02:55:01.208Z,0
2018-05-01T02:56:01.934Z,0
2018-05-01T02:57:02.746Z,0
2018-05-01T02:58:03.466Z,0
2018-05-01T02:59:04.182Z,0
2018-05-01T03:00:05.306Z,0
2018-05-01T03:01:06.005Z,0
2018-05-01T03:02:06.732Z,0
2018-05-01T03:03:07.497Z,0
2018-05-01T03:04:08.232Z,0
2018-05-01T03:05:09.016Z,0
2018-05-01T03:06:09.736Z,0
2018-05-01T03:07:10.442Z,0
2018-05-01T03:08:11.170Z,0
2018-05-01T03:09:11.892Z,0
2018-05-01T03:10:12.655Z,0
2018-05-01T03:11:13.376Z,0
2018-05-01T03:12:14.114Z,0
2018-05-01T03:13:14.876Z,0
2018-05-01T03:14:15.662Z,0
2018-05-01T03:15:16.379Z,0
2018-05-01T03:16:17.095Z,0
2018-05-01T03:17:17.868Z,0
2018-05-01T03:18:18.616Z,0
2018-05-01T03:19:19.397Z,0
2018-05-01T03:20:20.121Z,0
2018-05-01T03:21:20.833Z,0
2018-05-01T03:22:21.632Z,0
2018-05-01T03:23:22.428Z,0
2018-05-01T03:24:23.156Z,0
2018-05-01T03:25:24.062Z,0
2018-05-01T03:26:24.711Z,4
2018-05-01T03:27:25.466Z,4
2018-05-01T03:28:26.171Z,4
2018-05-01T03:29:26.890Z,0
2018-05-01T03:30:27.589Z,4
2018-05-01T03:31:28.323Z,4
2018-05-01T03:32:29.041Z,4
2018-05-01T03:33:29.839Z,4
2018-05-01T03:34:30.965Z,8
2018-05-01T03:35:31.740Z,4
2018-05-01T03:36:32.468Z,8
2018-05-01T03:37:33.187Z,8
2018-05-01T03:38:33.911Z,8
2018-05-01T03:39:34.769Z,16
2018-05-01T03:40:35.499Z,12
2018-05-01T03:41:36.299Z,16
2018-05-01T03:42:37.043Z,12
2018-05-01T03:43:37.838Z,16
2018-05-01T03:44:38.640Z,24
2018-05-01T03:45:39.434Z,24
2018-05-01T03:46:40.156Z,28
2018-05-01T03:47:40.891Z,20
2018-05-01T03:48:41.623Z,28
2018-05-01T03:49:42.387Z,32
2018-05-01T03:50:43.218Z,40
2018-05-01T03:51:44.009Z,40
2018-05-01T03:52:44.748Z,52
2018-05-01T03:53:45.525Z,48
2018-05-01T03:54:46.241Z,52
2018-05-01T03:55:47.520Z,56
2018-05-01T03:56:48.142Z,64
2018-05-01T03:57:48.871Z,64
2018-05-01T03:58:49.590Z,76
2018-05-01T03:59:50.319Z,88
2018-05-01T04:00:51.099Z,112
2018-05-01T04:01:51.832Z,100
2018-05-01T04:02:52.536Z,92
2018-05-01T04:03:53.325Z,96
2018-05-01T04:04:54.058Z,96
2018-05-01T04:05:54.898Z,140
2018-05-01T04:06:55.711Z,156
2018-05-01T04:07:56.442Z,160
2018-05-01T04:08:57.172Z,168
2018-05-01T04:09:57.892Z,144
2018-05-01T04:10:58.623Z,156
2018-05-01T04:11:59.361Z,204
2018-05-01T04:13:00.117Z,196
2018-05-01T04:14:01.278Z,196
2018-05-01T04:15:01.998Z,196
2018-05-01T04:16:02.709Z,228
2018-05-01T04:17:03.428Z,256
2018-05-01T04:18:04.211Z,296
2018-05-01T04:19:04.980Z,256
2018-05-01T04:20:05.705Z,248
2018-05-01T04:21:06.467Z,304
2018-05-01T04:22:07.192Z,332
2018-05-01T04:23:08.008Z,264
2018-05-01T04:24:08.731Z,364
2018-05-01T04:25:09.511Z,452
2018-05-01T04:26:10.403Z,476
2018-05-01T04:27:11.123Z,568
2018-05-01T04:28:11.830Z,416
2018-05-01T04:29:12.552Z,580
2018-05-01T04:30:13.264Z,432
2018-05-01T04:31:14.416Z,464
2018-05-01T04:32:15.147Z,428
2018-05-01T04:33:15.872Z,464
2018-05-01T04:34:16.572Z,408
2018-05-01T04:35:17.296Z,516
2018-05-01T04:36:18.024Z,436
2018-05-01T04:37:18.763Z,616
2018-05-01T04:38:19.487Z,540
2018-05-01T04:39:20.362Z,564
2018-05-01T04:40:21.113Z,600
2018-05-01T04:41:21.833Z,476
2018-05-01T04:42:22.550Z,624
2018-05-01T04:43:23.263Z,524
2018-05-01T04:44:23.974Z,672
2018-05-01T04:45:24.771Z,640
2018-05-01T04:46:25.563Z,656
2018-05-01T04:47:26.403Z,728
2018-05-01T04:48:27.172Z,784
2018-05-01T04:49:27.898Z,832
2018-05-01T04:50:28.679Z,968
2018-05-01T04:51:29.412Z,1016
2018-05-01T04:52:30.131Z,1044
2018-05-01T04:53:30.862Z,1080
2018-05-01T04:54:31.591Z,1004
2018-05-01T04:55:32.321Z,1308
2018-05-01T04:56:33.073Z,1040
2018-05-01T04:57:33.798Z,1244
2018-05-01T04:58:34.604Z,1196
2018-05-01T04:59:35.323Z,1284
2018-05-01T05:00:36.042Z,1096
2018-05-01T05:01:36.809Z,1300
2018-05-01T05:02:37.530Z,1512
2018-05-01T05:03:38.352Z,1676
2018-05-01T05:04:39.083Z,1504
2018-05-01T05:05:39.819Z,1712
2018-05-01T05:06:40.548Z,1472
2018-05-01T05:07:41.243Z,2224
2018-05-01T05:08:42.047Z,1612
2018-05-01T05:09:42.853Z,1332
2018-05-01T05:10:43.590Z,1352
2018-05-01T05:11:44.340Z,1556
2018-05-01T05:12:45.079Z,1856
2018-05-01T05:13:45.804Z,2032
2018-05-01T05:14:46.517Z,1556
2018-05-01T05:15:47.239Z,1680
2018-05-01T05:16:47.973Z,2028
2018-05-01T05:17:48.686Z,1888
2018-05-01T05:18:49.423Z,1432
2018-05-01T05:19:50.191Z,1716
2018-05-01T05:20:50.961Z,2340
2018-05-01T05:21:51.702Z,1644
2018-05-01T05:22:52.779Z,2008
2018-05-01T05:23:53.501Z,2328
2018-05-01T05:24:54.231Z,1840
2018-05-01T05:25:54.960Z,1804
2018-05-01T05:26:55.691Z,2056
2018-05-01T05:27:56.484Z,1800
2018-05-01T05:28:57.257Z,1728
2018-05-01T05:29:57.980Z,1472
2018-05-01T05:30:58.706Z,1612
2018-05-01T05:31:59.436Z,1440
2018-05-01T05:33:00.178Z,1260
2018-05-01T05:34:00.903Z,1528
2018-05-01T05:35:01.685Z,1792
2018-05-01T05:36:02.414Z,2036
2018-05-01T05:37:03.156Z,1940
2018-05-01T05:38:03.927Z,1980
2018-05-01T05:39:04.649Z,1740
2018-05-01T05:40:05.409Z,1664
2018-05-01T05:41:06.136Z,1860
2018-05-01T05:42:06.867Z,1588
2018-05-01T05:43:07.608Z,1504
2018-05-01T05:44:08.385Z,1412
2018-05-01T05:45:09.113Z,1856
2018-05-01T05:46:09.849Z,1772
2018-05-01T05:47:10.577Z,1816
2018-05-01T05:48:11.338Z,1540
2018-05-01T05:49:12.070Z,1424
2018-05-01T05:50:12.803Z,1628
2018-05-01T05:51:13.578Z,1860
2018-05-01T05:52:14.278Z,1752
2018-05-01T05:53:15.064Z,1572
2018-05-01T05:54:15.870Z,1676
2018-05-01T05:55:16.509Z,1724
2018-05-01T05:56:17.239Z,2208
2018-05-01T05:57:17.958Z,2048
2018-05-01T05:58:18.674Z,2168
2018-05-01T05:59:19.478Z,2140
2018-05-01T06:00:20.203Z,2680
2018-05-01T06:01:20.944Z,2568
2018-05-01T06:02:21.741Z,2064
2018-05-01T06:03:22.477Z,2160
2018-05-01T06:04:23.206Z,2268
2018-05-01T06:05:23.928Z,2148
2018-05-01T06:06:24.629Z,2124
2018-05-01T06:07:25.361Z,1984
2018-05-01T06:08:26.093Z,2256
2018-05-01T06:09:26.882Z,2000
2018-05-01T06:10:27.951Z,1976
2018-05-01T06:11:28.679Z,1868
2018-05-01T06:12:29.407Z,2272
2018-05-01T06:13:30.156Z,2436
2018-05-01T06:14:30.850Z,2796
2018-05-01T06:15:31.629Z,2216
2018-05-01T06:16:32.351Z,2112
2018-05-01T06:17:33.173Z,2412
2018-05-01T06:18:33.928Z,2444
2018-05-01T06:19:34.654Z,1832
2018-05-01T06:20:35.413Z,1772
2018-05-01T06:21:36.129Z,1656
2018-05-01T06:22:36.913Z,1880
2018-05-01T06:23:37.658Z,1892
2018-05-01T06:24:38.380Z,1684
2018-05-01T06:25:39.502Z,1716
2018-05-01T06:26:40.217Z,1816
2018-05-01T06:27:40.943Z,1636
2018-05-01T06:28:41.713Z,1756
2018-05-01T06:29:42.461Z,1724
2018-05-01T06:30:43.620Z,1664
2018-05-01T06:31:44.389Z,1932
2018-05-01T06:32:45.128Z,1660
2018-05-01T06:33:45.928Z,1980
2018-05-01T06:34:46.716Z,1784
2018-05-01T06:35:47.523Z,2080
2018-05-01T06:36:48.310Z,2156
2018-05-01T06:37:48.975Z,1808
2018-05-01T06:38:49.718Z,1976
2018-05-01T06:39:50.436Z,2156
2018-05-01T06:40:51.159Z,2400
2018-05-01T06:41:51.973Z,2680
2018-05-01T06:42:52.715Z,2520
2018-05-01T06:43:53.498Z,2712
2018-05-01T06:44:54.161Z,3428
2018-05-01T06:45:54.881Z,4204
2018-05-01T06:46:55.613Z,3688
2018-05-01T06:47:56.345Z,3208
2018-05-01T06:48:57.081Z,2472
2018-05-01T06:49:57.853Z,2584
2018-05-01T06:50:58.652Z,2864
2018-05-01T06:51:59.759Z,2504
2018-05-01T06:53:00.529Z,2624
2018-05-01T06:54:01.352Z,3452
2018-05-01T06:55:02.088Z,3560
2018-05-01T06:56:02.813Z,4148
2018-05-01T06:57:03.609Z,5592
2018-05-01T06:58:04.390Z,5344
2018-05-01T06:59:05.142Z,6032
2018-05-01T07:00:05.902Z,5580
2018-05-01T07:01:06.636Z,6280
2018-05-01T07:02:07.458Z,5932
2018-05-01T07:03:08.218Z,7364
2018-05-01T07:04:08.963Z,5788
2018-05-01T07:05:09.649Z,5848
2018-05-01T07:06:10.375Z,5556
2018-05-01T07:07:11.102Z,4128
2018-05-01T07:08:11.835Z,4804
2018-05-01T07:09:12.626Z,4668
2018-05-01T07:10:13.483Z,3164
2018-05-01T07:11:14.219Z,3456
2018-05-01T07:12:14.997Z,4056
2018-05-01T07:13:15.755Z,3200
2018-05-01T07:14:16.520Z,3380
2018-05-01T07:15:17.328Z,2660
2018-05-01T07:16:18.057Z,3024
2018-05-01T07:17:18.792Z,3032
2018-05-01T07:18:19.584Z,3216
2018-05-01T07:19:20.330Z,3100
2018-05-01T07:20:21.052Z,3684
2018-05-01T07:21:21.776Z,3000
2018-05-01T07:22:22.514Z,2868
2018-05-01T07:23:23.254Z,2836
2018-05-01T07:24:23.988Z,2944
2018-05-01T07:25:24.736Z,2572
2018-05-01T07:26:25.514Z,2652
2018-05-01T07:27:26.326Z,2644
2018-05-01T07:28:27.057Z,2484
2018-05-01T07:29:27.827Z,2020
2018-05-01T07:30:28.611Z,2020
2018-05-01T07:31:29.326Z,2128
2018-05-01T07:32:30.111Z,2068
2018-05-01T07:33:30.828Z,2380
2018-05-01T07:34:31.554Z,2384
2018-05-01T07:35:32.410Z,2596
2018-05-01T07:36:33.082Z,2132
2018-05-01T07:37:33.812Z,2096
2018-05-01T07:38:34.539Z,2656
2018-05-01T07:39:35.293Z,2960
2018-05-01T07:40:36.045Z,2712
2018-05-01T07:41:37.243Z,2760
2018-05-01T07:42:37.893Z,3076
2018-05-01T07:43:38.691Z,2944
2018-05-01T07:44:39.414Z,2832
2018-05-01T07:45:40.144Z,2992
2018-05-01T07:46:40.966Z,2944
2018-05-01T07:47:41.689Z,3040
2018-05-01T07:48:42.411Z,2656
2018-05-01T07:49:43.154Z,2980
2018-05-01T07:50:43.915Z,3160
2018-05-01T07:51:44.804Z,3496
2018-05-01T07:52:45.545Z,4168
2018-05-01T07:53:46.270Z,3616
2018-05-01T07:54:47.008Z,4912
2018-05-01T07:55:47.793Z,4428
2018-05-01T07:56:48.531Z,4300
2018-05-01T07:57:49.315Z,4096
2018-05-01T07:58:50.042Z,3092
2018-05-01T07:59:50.878Z,2948
2018-05-01T08:00:51.621Z,4448
2018-05-01T08:01:52.395Z,4792
2018-05-01T08:02:53.126Z,4220
2018-05-01T08:03:53.853Z,4808
2018-05-01T08:04:54.736Z,4596
2018-05-01T08:05:55.470Z,3344
2018-05-01T08:06:56.376Z,4272
2018-05-01T08:07:57.093Z,4232
2018-05-01T08:08:57.886Z,4672
2018-05-01T08:09:58.598Z,4016
2018-05-01T08:10:59.390Z,4028
2018-05-01T08:12:00.145Z,4320
2018-05-01T08:13:00.842Z,3968
2018-05-01T08:14:01.579Z,4112
2018-05-01T08:15:02.356Z,3952
2018-05-01T08:16:03.075Z,3400
2018-05-01T08:17:03.805Z,4072
2018-05-01T08:18:04.551Z,4328
2018-05-01T08:19:05.313Z,3780
2018-05-01T08:20:06.131Z,4176
2018-05-01T08:21:06.885Z,4540
2018-05-01T08:22:07.707Z,4892
2018-05-01T08:23:08.502Z,3916
2018-05-01T08:24:09.233Z,4748
2018-05-01T08:25:10.013Z,4900
2018-05-01T08:26:10.740Z,4932
2018-05-01T08:27:11.487Z,4472
2018-05-01T08:28:12.217Z,4764
2018-05-01T08:29:12.955Z,5872
2018-05-01T08:30:13.771Z,5908
2018-05-01T08:31:14.493Z,5696
2018-05-01T08:32:15.264Z,6136
2018-05-01T08:33:15.982Z,6080
2018-05-01T08:34:16.723Z,6064
2018-05-01T08:35:17.451Z,7324
2018-05-01T08:36:18.249Z,8008
2018-05-01T08:37:19.052Z,5276
2018-05-01T08:38:19.770Z,6500
2018-05-01T08:39:20.492Z,6800
2018-05-01T08:40:21.213Z,6016
2018-05-01T08:41:21.993Z,6200
2018-05-01T08:42:22.728Z,6528
2018-05-01T08:43:23.455Z,5276
2018-05-01T08:44:24.172Z,5356
2018-05-01T08:45:24.908Z,6168
2018-05-01T08:46:25.613Z,6436
2018-05-01T08:47:26.691Z,6164
2018-05-01T08:48:27.417Z,6780
2018-05-01T08:49:28.174Z,7092
2018-05-01T08:50:28.901Z,6100
2018-05-01T08:51:29.619Z,5804
2018-05-01T08:52:30.423Z,5092
2018-05-01T08:53:31.163Z,5904
2018-05-01T08:54:31.934Z,5628
2018-05-01T08:55:32.656Z,5640
2018-05-01T08:56:33.441Z,5632
2018-05-01T08:57:34.228Z,6076
2018-05-01T08:58:34.998Z,5524
2018-05-01T08:59:35.733Z,5716
2018-05-01T09:00:36.472Z,5620
2018-05-01T09:01:37.215Z,5624
2018-05-01T09:02:37.984Z,5132
2018-05-01T09:03:38.713Z,5744
2018-05-01T09:04:39.501Z,5872
2018-05-01T09:05:40.221Z,5300
2018-05-01T09:06:40.942Z,5416
2018-05-01T09:07:41.728Z,5024
2018-05-01T09:08:42.481Z,4820
2018-05-01T09:09:43.215Z,4620
2018-05-01T09:10:44.029Z,5700
2018-05-01T09:11:44.826Z,6604
2018-05-01T09:12:45.560Z,6404
2018-05-01T09:13:46.456Z,6012
2018-05-01T09:14:47.235Z,6212
2018-05-01T09:15:47.975Z,5904
2018-05-01T09:16:48.753Z,6644
2018-05-01T09:17:49.717Z,6276
2018-05-01T09:18:50.218Z,6636
2018-05-01T09:19:50.945Z,7708
2018-05-01T09:20:51.661Z,6540
2018-05-01T09:21:52.400Z,7180
2018-05-01T09:22:53.195Z,8172
2018-05-01T09:23:53.936Z,7356
2018-05-01T09:24:54.671Z,6956
2018-05-01T09:25:55.398Z,9904
2018-05-01T09:26:56.122Z,13692
2018-05-01T09:27:56.921Z,11688
2018-05-01T09:28:57.744Z,12608
2018-05-01T09:29:58.467Z,11840
2018-05-01T09:30:59.197Z,8084
2018-05-01T09:31:59.994Z,9244
2018-05-01T09:33:00.730Z,9888
2018-05-01T09:34:01.464Z,10688
2018-05-01T09:35:02.259Z,11104
2018-05-01T09:36:03.061Z,15760
2018-05-01T09:37:03.867Z,11000
2018-05-01T09:38:04.664Z,11276
2018-05-01T09:39:05.412Z,20544
2018-05-01T09:40:06.209Z,18400
2018-05-01T09:41:07.004Z,18560
2018-05-01T09:42:07.777Z,16928
2018-05-01T09:43:09.030Z,21504
2018-05-01T09:44:11.025Z,26912
2018-05-01T09:45:13.037Z,16532
2018-05-01T09:46:15.617Z,17300
2018-05-01T09:47:17.419Z,14996
2018-05-01T09:48:18.381Z,13724
2018-05-01T09:49:19.051Z,14008
2018-05-01T09:50:19.810Z,10712
2018-05-01T09:51:20.566Z,8060
2018-05-01T09:52:21.297Z,7944
2018-05-01T09:53:22.612Z,9620
2018-05-01T09:54:23.430Z,11224
2018-05-01T09:55:24.229Z,11496
2018-05-01T09:56:25.010Z,8988
2018-05-01T09:57:25.687Z,11172
2018-05-01T09:58:26.421Z,14164
2018-05-01T09:59:27.138Z,10288
2018-05-01T10:00:27.899Z,12756
2018-05-01T10:01:28.659Z,10504
2018-05-01T10:02:29.408Z,12736
2018-05-01T10:03:30.142Z,13896
2018-05-01T10:04:30.936Z,13920
2018-05-01T10:05:31.691Z,12396
2018-05-01T10:06:32.500Z,12008
2018-05-01T10:07:33.247Z,16344
2018-05-01T10:08:34.052Z,18944
2018-05-01T10:09:34.779Z,18272
2018-05-01T10:10:35.507Z,15216
2018-05-01T10:11:36.241Z,14504
2018-05-01T10:12:37.319Z,20736
2018-05-01T10:13:38.075Z,30528
2018-05-01T10:14:38.852Z,30528
2018-05-01T10:15:39.575Z,26592
2018-05-01T10:16:40.307Z,25504
2018-05-01T10:17:41.136Z,23680
2018-05-01T10:18:41.872Z,21888
2018-05-01T10:19:42.606Z,19424
2018-05-01T10:20:43.333Z,25376
2018-05-01T10:21:44.121Z,22752
2018-05-01T10:22:44.947Z,17504
2018-05-01T10:23:45.673Z,18112
2018-05-01T10:24:46.409Z,12912
2018-05-01T10:25:47.136Z,11196
2018-05-01T10:26:47.879Z,9340
2018-05-01T10:27:49.011Z,8852
2018-05-01T10:28:49.774Z,9128
2018-05-01T10:29:50.516Z,10980
2018-05-01T10:30:51.250Z,11120
2018-05-01T10:31:51.999Z,15572
2018-05-01T10:32:52.732Z,23136
2018-05-01T10:33:53.552Z,30208
2018-05-01T10:34:54.375Z,22688
2018-05-01T10:35:55.183Z,18880
2018-05-01T10:36:55.920Z,21248
2018-05-01T10:37:56.653Z,27744
2018-05-01T10:38:57.485Z,25248
2018-05-01T10:39:58.226Z,20768
2018-05-01T10:40:58.989Z,19968
2018-05-01T10:41:59.722Z,26240
2018-05-01T10:43:00.449Z,35232
2018-05-01T10:44:01.294Z,36960
2018-05-01T10:45:02.037Z,27808
2018-05-01T10:46:02.773Z,24288
2018-05-01T10:47:03.513Z,25248
2018-05-01T10:48:04.272Z,27552
2018-05-01T10:49:05.171Z,54816
2018-05-01T10:50:05.921Z,26624
2018-05-01T10:51:06.720Z,28192
2018-05-01T10:52:07.559Z,25696
2018-05-01T10:53:08.350Z,19904
2018-05-01T10:54:09.057Z,14888
2018-05-01T10:55:10.054Z,16692
2018-05-01T10:56:10.844Z,20480
2018-05-01T10:57:12.319Z,22336
2018-05-01T10:58:13.061Z,20192
2018-05-01T10:59:14.135Z,23936
2018-05-01T11:00:15.113Z,27328
2018-05-01T11:01:16.497Z,31072
2018-05-01T11:02:17.498Z,30016
2018-05-01T11:03:18.251Z,25344
2018-05-01T11:04:19.059Z,22144
2018-05-01T11:05:20.081Z,19360
2018-05-01T11:06:20.943Z,18944
2018-05-01T11:07:22.662Z,17696
2018-05-01T11:08:23.521Z,24928
2018-05-01T11:09:24.193Z,24480
2018-05-01T11:10:26.055Z,20800
2018-05-01T11:11:26.696Z,22144
2018-05-01T11:12:27.794Z,24640
2018-05-01T11:13:29.287Z,19520
2018-05-01T11:14:30.664Z,15216
2018-05-01T11:15:31.863Z,14368
2018-05-01T11:16:32.697Z,14196
2018-05-01T11:17:33.493Z,14740
2018-05-01T11:18:34.241Z,16104
2018-05-01T11:19:35.033Z,15152
2018-05-01T11:20:35.801Z,13676
2018-05-01T11:21:37.154Z,13140
2018-05-01T11:22:37.825Z,14152
2018-05-01T11:23:38.559Z,14032
2018-05-01T11:24:39.373Z,14832
2018-05-01T11:25:40.570Z,16652
2018-05-01T11:26:41.250Z,17056
2018-05-01T11:27:42.184Z,16396
2018-05-01T11:28:43.190Z,18752
2018-05-01T11:29:44.254Z,21024
2018-05-01T11:30:44.962Z,22304
2018-05-01T11:31:45.760Z,20704
2018-05-01T11:32:46.846Z,24800
2018-05-01T11:33:47.677Z,28640
2018-05-01T11:34:48.437Z,37376
2018-05-01T11:35:49.297Z,40096
2018-05-01T11:36:50.238Z,32288
2018-05-01T11:37:50.910Z,30784
2018-05-01T11:38:51.805Z,36800
2018-05-01T11:39:52.608Z,42976
2018-05-01T11:40:53.358Z,44960
2018-05-01T11:41:54.178Z,41696
2018-05-01T11:42:54.952Z,71808
2018-05-01T11:43:55.688Z,43360
2018-05-01T11:44:57.301Z,131936
2018-05-01T11:45:58.295Z,40064
2018-05-01T11:46:59.118Z,32576
2018-05-01T11:48:01.294Z,29728
2018-05-01T11:49:02.082Z,32320
2018-05-01T11:50:03.375Z,24320
2018-05-01T11:51:04.088Z,24288
2018-05-01T11:52:04.821Z,26656
2018-05-01T11:53:05.545Z,24224
2018-05-01T11:54:06.289Z,24608
2018-05-01T11:55:07.416Z,22784
2018-05-01T11:56:08.241Z,20352
2018-05-01T11:57:09.001Z,26752
2018-05-01T11:58:09.790Z,30240
2018-05-01T11:59:10.574Z,30176
2018-05-01T12:00:11.782Z,30272
2018-05-01T12:01:12.628Z,29312
2018-05-01T12:02:13.449Z,30368
2018-05-01T12:03:14.233Z,22176
2018-05-01T12:04:14.984Z,22944
2018-05-01T12:05:15.752Z,41536
2018-05-01T12:06:16.487Z,27072
2018-05-01T12:07:17.309Z,22112
2018-05-01T12:08:18.048Z,22048
2018-05-01T12:09:18.845Z,21440
2018-05-01T12:10:20.040Z,21248
2018-05-01T12:11:20.882Z,22688
2018-05-01T12:12:21.986Z,32736
2018-05-01T12:13:22.684Z,33280
2018-05-01T12:14:23.499Z,30944
2018-05-01T12:15:24.726Z,27840
2018-05-01T12:16:25.397Z,45664
2018-05-01T12:17:26.144Z,31776
2018-05-01T12:18:27.216Z,24320
2018-05-01T12:19:27.885Z,26048
2018-05-01T12:20:28.727Z,27136
2018-05-01T12:21:29.479Z,26560
2018-05-01T12:22:30.307Z,24064
2018-05-01T12:23:31.114Z,22592
2018-05-01T12:24:31.892Z,21248
2018-05-01T12:25:32.683Z,18016
2018-05-01T12:26:33.467Z,17632
2018-05-01T12:27:34.203Z,20736
2018-05-01T12:28:34.954Z,22528
2018-05-01T12:29:35.740Z,23040
2018-05-01T12:30:36.470Z,24928
2018-05-01T12:31:37.234Z,26080
2018-05-01T12:32:38.081Z,40320
2018-05-01T12:33:38.848Z,105760
2018-05-01T12:34:39.579Z,110048
2018-05-01T12:35:40.392Z,100320
2018-05-01T12:36:41.509Z,53376
2018-05-01T12:37:42.194Z,99200
2018-05-01T12:38:42.942Z,33344
2018-05-01T12:39:43.756Z,34784
2018-05-01T12:40:44.560Z,40384
2018-05-01T12:41:45.290Z,46528
2018-05-01T12:42:46.033Z,43872
2018-05-01T12:43:46.768Z,38816
2018-05-01T12:44:47.515Z,31808
2018-05-01T12:45:48.563Z,29792
2018-05-01T12:46:49.718Z,31104
2018-05-01T12:47:50.472Z,30816
2018-05-01T12:48:51.265Z,37824
2018-05-01T12:49:52.014Z,43360
2018-05-01T12:50:52.762Z,36448
2018-05-01T12:51:53.801Z,52896
2018-05-01T12:52:54.552Z,40256
2018-05-01T12:53:55.283Z,38336
2018-05-01T12:54:56.010Z,36224
2018-05-01T12:55:56.758Z,43456
2018-05-01T12:56:57.604Z,62176
2018-05-01T12:57:58.381Z,55744
2018-05-01T12:58:59.120Z,44128
2018-05-01T12:59:59.865Z,80320
2018-05-01T13:01:00.662Z,50496
2018-05-01T13:02:01.444Z,25472
2018-05-01T13:03:02.189Z,21888
2018-05-01T13:04:02.972Z,21792
2018-05-01T13:05:03.858Z,19616
2018-05-01T13:06:05.214Z,19424
2018-05-01T13:07:06.111Z,82880
2018-05-01T13:08:06.913Z,35200
2018-05-01T13:09:07.678Z,27168
2018-05-01T13:10:08.497Z,25856
2018-05-01T13:11:09.277Z,22400
2018-05-01T13:12:10.024Z,23040
2018-05-01T13:13:10.762Z,54464
2018-05-01T13:14:12.304Z,53568
2018-05-01T13:15:13.451Z,28160
2018-05-01T13:16:14.257Z,24064
2018-05-01T13:17:15.084Z,50048
2018-05-01T13:18:15.858Z,48000
2018-05-01T13:19:16.780Z,57696
2018-05-01T13:20:17.564Z,54592
2018-05-01T13:21:18.351Z,36960
2018-05-01T13:22:19.798Z,26048
2018-05-01T13:23:20.703Z,25216
2018-05-01T13:24:21.733Z,38592
2018-05-01T13:25:22.514Z,34112
2018-05-01T13:26:23.274Z,31424
2018-05-01T13:27:24.115Z,53216
2018-05-01T13:28:25.066Z,56960
2018-05-01T13:29:26.253Z,58240
2018-05-01T13:30:28.039Z,62592
2018-05-01T13:31:28.716Z,62304
2018-05-01T13:32:29.456Z,60352
2018-05-01T13:33:30.195Z,58656
2018-05-01T13:34:31.104Z,56672
2018-05-01T13:35:31.842Z,56160
2018-05-01T13:36:32.569Z,56800
2018-05-01T13:37:33.373Z,29760
2018-05-01T13:38:34.111Z,63648
2018-05-01T13:39:34.873Z,59712
2018-05-01T13:40:35.617Z,55584
2018-05-01T13:41:36.361Z,46912
2018-05-01T13:42:37.157Z,28864
2018-05-01T13:43:37.894Z,46464
2018-05-01T13:44:38.785Z,48000
2018-05-01T13:45:39.887Z,48064